createdAt,value
2019-02-28T00:00:21.990Z,36.60
2019-02-28T00:01:21.986Z,40.20
2019-02-28T00:02:22.680Z,36.40
2019-02-28T00:03:21.977Z,35.60
2019-02-28T00:04:21.973Z,34.80
2019-02-28T00:05:21.967Z,35.80
2019-02-28T00:06:21.972Z,36.90
2019-02-28T00:07:21.957Z,33.40
2019-02-28T00:08:21.952Z,39.00
2019-02-28T00:09:21.948Z,33.50
2019-02-28T00:10:21.942Z,24.80
2019-02-28T00:11:21.937Z,31.50
2019-02-28T00:12:21.933Z,26.20
2019-02-28T00:13:22.545Z,27.40
2019-02-28T00:14:21.923Z,30.60
2019-02-28T00:15:21.917Z,29.60
2019-02-28T00:16:21.913Z,28.20
2019-02-28T00:17:21.907Z,28.30
2019-02-28T00:18:21.903Z,27.80
2019-02-28T00:19:23.938Z,30.70
2019-02-28T00:20:21.892Z,34.90
2019-02-28T00:21:21.890Z,23.50
2019-02-28T00:22:21.883Z,32.50
2019-02-28T00:23:22.011Z,27.30
2019-02-28T00:24:21.872Z,32.30
2019-02-28T00:25:21.867Z,27.20
2019-02-28T00:26:21.861Z,35.40
2019-02-28T00:27:22.176Z,34.50
2019-02-28T00:28:23.132Z,30.80
2019-02-28T00:29:21.847Z,33.30
2019-02-28T00:30:21.844Z,35.20
2019-02-28T00:31:21.837Z,38.20
2019-02-28T00:32:24.776Z,32.50
2019-02-28T00:33:21.829Z,32.40
2019-02-28T00:34:21.820Z,33.90
2019-02-28T00:35:21.814Z,38.70
2019-02-28T00:36:21.810Z,36.00
2019-02-28T00:37:24.704Z,32.30
2019-02-28T00:38:21.800Z,42.30
2019-02-28T00:39:21.794Z,34.30
2019-02-28T00:40:21.789Z,42.40
2019-02-28T00:41:21.785Z,30.40
2019-02-28T00:42:21.778Z,35.90
2019-02-28T00:43:22.246Z,36.00
2019-02-28T00:44:21.769Z,37.50
2019-02-28T00:45:21.766Z,41.90
2019-02-28T00:46:21.758Z,43.90
2019-02-28T00:47:21.750Z,40.40
2019-02-28T00:48:22.319Z,35.00
2019-02-28T00:49:24.548Z,37.80
2019-02-28T00:50:21.737Z,40.20
2019-02-28T00:51:21.731Z,36.10
2019-02-28T00:52:21.725Z,45.00
2019-02-28T00:53:21.720Z,39.40
2019-02-28T00:54:21.715Z,35.10
2019-02-28T00:55:21.711Z,34.20
2019-02-28T00:56:21.704Z,38.50
2019-02-28T00:57:23.627Z,35.30
2019-02-28T00:58:21.694Z,29.40
2019-02-28T00:59:21.689Z,34.40
2019-02-28T01:00:21.683Z,34.60
2019-02-28T01:01:21.679Z,34.20
2019-02-28T01:02:21.673Z,29.20
2019-02-28T01:03:26.504Z,38.30
2019-02-28T01:04:21.661Z,29.50
2019-02-28T01:05:21.659Z,36.90
2019-02-28T01:06:21.650Z,34.40
2019-02-28T01:07:21.646Z,35.80
2019-02-28T01:08:22.123Z,33.00
2019-02-28T01:09:21.633Z,31.90
2019-02-28T01:10:21.629Z,34.80
2019-02-28T01:11:21.624Z,34.90
2019-02-28T01:12:21.617Z,29.10
2019-02-28T01:13:21.612Z,25.50
2019-02-28T01:14:21.611Z,27.80
2019-02-28T01:15:21.601Z,21.50
2019-02-28T01:16:21.596Z,24.20
2019-02-28T01:17:24.065Z,24.80
2019-02-28T01:18:21.584Z,30.50
2019-02-28T01:19:21.578Z,29.60
2019-02-28T01:20:21.573Z,26.20
2019-02-28T01:21:23.940Z,27.10
2019-02-28T01:22:21.563Z,35.40
2019-02-28T01:23:21.557Z,29.50
2019-02-28T01:24:21.551Z,25.30
2019-02-28T01:25:21.545Z,33.70
2019-02-28T01:26:21.540Z,32.40
2019-02-28T01:27:21.842Z,27.40
2019-02-28T01:28:23.472Z,29.60
2019-02-28T01:29:21.524Z,31.00
2019-02-28T01:30:21.517Z,34.70
2019-02-28T01:31:21.511Z,38.30
2019-02-28T01:32:21.508Z,33.10
2019-02-28T01:33:24.556Z,33.20
2019-02-28T01:34:21.496Z,36.80
2019-02-28T01:35:21.488Z,34.10
2019-02-28T01:36:21.482Z,32.00
2019-02-28T01:37:21.967Z,29.50
2019-02-28T01:38:23.880Z,45.10
2019-02-28T01:39:21.467Z,41.70
2019-02-28T01:40:21.458Z,31.70
2019-02-28T01:41:21.453Z,35.40
2019-02-28T01:42:21.447Z,44.20
2019-02-28T01:43:21.441Z,42.70
2019-02-28T01:44:21.439Z,45.60
2019-02-28T01:45:21.429Z,39.10
2019-02-28T01:46:21.422Z,49.70
2019-02-28T01:47:21.419Z,46.00
2019-02-28T01:48:22.671Z,39.20
2019-02-28T01:49:21.406Z,45.20
2019-02-28T01:50:21.401Z,40.50
2019-02-28T01:51:21.394Z,46.00
2019-02-28T01:52:21.402Z,54.00
2019-02-28T01:53:21.394Z,52.20
2019-02-28T01:54:21.384Z,51.00
2019-02-28T01:55:21.370Z,50.10
2019-02-28T01:56:21.365Z,38.70
2019-02-28T01:57:21.358Z,46.70
2019-02-28T01:58:21.354Z,42.10
2019-02-28T01:59:22.222Z,48.60
2019-02-28T02:00:23.816Z,47.90
2019-02-28T02:01:21.335Z,47.30
2019-02-28T02:02:21.330Z,44.50
2019-02-28T02:03:21.325Z,43.10
2019-02-28T02:04:21.317Z,43.70
2019-02-28T02:05:21.311Z,48.40
2019-02-28T02:06:22.596Z,52.60
2019-02-28T02:07:21.298Z,59.90
2019-02-28T02:08:21.294Z,57.40
2019-02-28T02:09:21.288Z,42.80
2019-02-28T02:10:21.711Z,46.80
2019-02-28T02:11:21.276Z,45.50
2019-02-28T02:12:21.268Z,49.50
2019-02-28T02:13:21.265Z,54.90
2019-02-28T02:14:21.258Z,60.10
2019-02-28T02:15:21.251Z,57.40
2019-02-28T02:16:26.853Z,47.40
2019-02-28T02:17:21.239Z,47.60
2019-02-28T02:18:21.233Z,50.50
2019-02-28T02:19:21.227Z,58.20
2019-02-28T02:20:23.414Z,62.40
2019-02-28T02:21:21.215Z,56.50
2019-02-28T02:22:21.210Z,60.20
2019-02-28T02:23:21.202Z,53.80
2019-02-28T02:24:21.198Z,62.00
2019-02-28T02:25:21.192Z,56.70
2019-02-28T02:26:21.185Z,60.50
2019-02-28T02:27:21.179Z,51.90
2019-02-28T02:28:21.173Z,53.40
2019-02-28T02:29:21.168Z,59.30
2019-02-28T02:30:21.161Z,56.70
2019-02-28T02:31:27.612Z,55.20
2019-02-28T02:32:21.161Z,56.20
2019-02-28T02:33:21.185Z,62.40
2019-02-28T02:34:24.264Z,53.80
2019-02-28T02:35:21.134Z,60.70
2019-02-28T02:36:21.126Z,60.90
2019-02-28T02:37:21.155Z,55.20
2019-02-28T02:38:21.121Z,59.70
2019-02-28T02:39:21.110Z,60.40
2019-02-28T02:40:22.996Z,50.70
2019-02-28T02:41:21.097Z,65.80
2019-02-28T02:42:21.091Z,57.80
2019-02-28T02:43:21.893Z,58.80
2019-02-28T02:44:21.078Z,57.90
2019-02-28T02:45:21.073Z,51.90
2019-02-28T02:46:21.426Z,63.00
2019-02-28T02:47:21.060Z,54.10
2019-02-28T02:48:21.056Z,56.40
2019-02-28T02:49:21.049Z,58.60
2019-02-28T02:50:21.045Z,52.60
2019-02-28T02:51:21.047Z,58.50
2019-02-28T02:52:25.894Z,61.30
2019-02-28T02:53:21.026Z,60.20
2019-02-28T02:54:21.022Z,49.60
2019-02-28T02:55:27.558Z,52.40
2019-02-28T02:56:21.009Z,56.90
2019-02-28T02:57:21.003Z,62.90
2019-02-28T02:58:26.692Z,52.80
2019-02-28T02:59:20.989Z,62.90
2019-02-28T03:00:20.988Z,54.80
2019-02-28T03:01:23.110Z,50.60
2019-02-28T03:02:20.972Z,60.40
2019-02-28T03:03:20.968Z,60.60
2019-02-28T03:04:23.010Z,57.00
2019-02-28T03:05:20.956Z,47.30
2019-02-28T03:06:20.964Z,69.40
2019-02-28T03:07:24.572Z,51.80
2019-02-28T03:08:20.937Z,60.20
2019-02-28T03:09:20.931Z,62.90
2019-02-28T03:10:20.925Z,52.60
2019-02-28T03:11:24.872Z,50.40
2019-02-28T03:12:20.932Z,52.40
2019-02-28T03:13:20.908Z,56.20
2019-02-28T03:14:20.903Z,48.50
2019-02-28T03:15:26.893Z,60.00
2019-02-28T03:16:20.891Z,53.70
2019-02-28T03:17:20.887Z,68.70
2019-02-28T03:18:21.795Z,56.30
2019-02-28T03:19:20.879Z,61.10
2019-02-28T03:20:20.866Z,57.10
2019-02-28T03:21:20.861Z,56.10
2019-02-28T03:22:28.349Z,57.60
2019-02-28T03:23:20.849Z,57.20
2019-02-28T03:24:20.842Z,56.00
2019-02-28T03:25:27.438Z,54.40
2019-02-28T03:26:20.831Z,55.60
2019-02-28T03:27:20.825Z,62.50
2019-02-28T03:28:20.820Z,61.00
2019-02-28T03:29:20.813Z,60.70
2019-02-28T03:30:28.339Z,65.40
2019-02-28T03:31:20.807Z,48.50
2019-02-28T03:32:20.797Z,44.80
2019-02-28T03:33:27.237Z,56.20
2019-02-28T03:34:20.784Z,57.20
2019-02-28T03:35:20.835Z,56.50
2019-02-28T03:36:20.772Z,53.30
2019-02-28T03:37:20.766Z,48.60
2019-02-28T03:38:20.770Z,46.50
2019-02-28T03:39:24.075Z,46.80
2019-02-28T03:40:20.750Z,49.30
2019-02-28T03:41:20.742Z,50.40
2019-02-28T03:42:20.741Z,53.90
2019-02-28T03:43:20.730Z,41.20
2019-02-28T03:44:21.876Z,47.10
2019-02-28T03:45:20.727Z,47.30
2019-02-28T03:46:20.726Z,49.20
2019-02-28T03:47:23.929Z,46.80
2019-02-28T03:48:20.698Z,53.60
2019-02-28T03:49:20.693Z,61.90
2019-02-28T03:50:21.859Z,50.40
2019-02-28T03:51:20.691Z,53.50
2019-02-28T03:52:20.674Z,52.70
2019-02-28T03:53:21.143Z,59.10
2019-02-28T03:54:20.663Z,58.10
2019-02-28T03:55:20.655Z,60.90
2019-02-28T03:56:20.650Z,52.90
2019-02-28T03:57:27.957Z,68.50
2019-02-28T03:58:20.639Z,61.00
2019-02-28T03:59:20.632Z,60.40
2019-02-28T04:00:20.626Z,65.10
2019-02-28T04:01:20.621Z,57.50
2019-02-28T04:02:22.233Z,51.00
2019-02-28T04:03:20.607Z,54.30
2019-02-28T04:04:20.602Z,57.60
2019-02-28T04:05:26.775Z,56.40
2019-02-28T04:06:20.589Z,58.80
2019-02-28T04:07:20.582Z,61.20
2019-02-28T04:08:20.580Z,56.00
2019-02-28T04:09:20.572Z,62.60
2019-02-28T04:10:22.044Z,65.00
2019-02-28T04:11:20.562Z,52.20
2019-02-28T04:12:20.556Z,57.90
2019-02-28T04:13:20.554Z,57.40
2019-02-28T04:14:20.541Z,56.10
2019-02-28T04:15:20.546Z,56.70
2019-02-28T04:16:20.531Z,61.00
2019-02-28T04:17:20.521Z,68.50
2019-02-28T04:18:20.516Z,59.00
2019-02-28T04:19:22.643Z,58.10
2019-02-28T04:20:20.503Z,56.80
2019-02-28T04:21:20.497Z,63.80
2019-02-28T04:22:23.019Z,64.00
2019-02-28T04:23:20.486Z,61.60
2019-02-28T04:24:20.480Z,56.40
2019-02-28T04:25:24.131Z,59.40
2019-02-28T04:26:20.468Z,53.70
2019-02-28T04:27:20.463Z,61.80
2019-02-28T04:28:20.454Z,57.20
2019-02-28T04:29:20.446Z,53.30
2019-02-28T04:30:20.443Z,59.20
2019-02-28T04:31:20.460Z,59.20
2019-02-28T04:32:26.355Z,64.30
2019-02-28T04:33:20.423Z,60.50
2019-02-28T04:34:20.419Z,67.00
2019-02-28T04:35:23.928Z,64.20
2019-02-28T04:36:20.405Z,59.80
2019-02-28T04:37:20.399Z,62.20
2019-02-28T04:38:21.389Z,50.80
2019-02-28T04:39:22.843Z,47.20
2019-02-28T04:40:20.380Z,47.40
2019-02-28T04:41:20.374Z,52.60
2019-02-28T04:42:20.368Z,47.00
2019-02-28T04:43:20.361Z,52.30
2019-02-28T04:44:20.355Z,42.70
2019-02-28T04:45:20.350Z,56.30
2019-02-28T04:46:20.347Z,53.00
2019-02-28T04:47:20.336Z,54.10
2019-02-28T04:48:20.330Z,57.60
2019-02-28T04:49:22.665Z,50.70
2019-02-28T04:50:20.318Z,58.90
2019-02-28T04:51:20.311Z,49.70
2019-02-28T04:52:20.306Z,60.60
2019-02-28T04:53:20.303Z,57.30
2019-02-28T04:54:20.294Z,65.70
2019-02-28T04:55:20.286Z,51.50
2019-02-28T04:56:20.281Z,62.20
2019-02-28T04:57:20.760Z,52.00
2019-02-28T04:58:22.343Z,49.20
2019-02-28T04:59:20.262Z,53.90
2019-02-28T05:00:20.266Z,52.90
2019-02-28T05:01:20.252Z,52.50
2019-02-28T05:02:20.699Z,60.00
2019-02-28T05:03:20.256Z,53.30
2019-02-28T05:04:20.231Z,55.50
2019-02-28T05:05:20.226Z,54.40
2019-02-28T05:06:21.186Z,49.40
2019-02-28T05:07:20.212Z,61.50
2019-02-28T05:08:20.206Z,63.90
2019-02-28T05:09:20.200Z,53.60
2019-02-28T05:10:22.364Z,58.30
2019-02-28T05:11:20.188Z,52.70
2019-02-28T05:12:20.191Z,60.30
2019-02-28T05:13:20.175Z,54.70
2019-02-28T05:14:23.374Z,52.10
2019-02-28T05:15:20.163Z,58.10
2019-02-28T05:16:20.157Z,66.30
2019-02-28T05:17:22.294Z,71.80
2019-02-28T05:18:20.146Z,72.20
2019-02-28T05:19:20.138Z,67.80
2019-02-28T05:20:20.130Z,67.00
2019-02-28T05:21:20.271Z,71.40
2019-02-28T05:22:20.118Z,62.80
2019-02-28T05:23:20.114Z,67.90
2019-02-28T05:24:20.106Z,78.50
2019-02-28T05:25:20.099Z,59.80
2019-02-28T05:26:20.093Z,66.70
2019-02-28T05:27:20.086Z,64.10
2019-02-28T05:28:20.085Z,71.00
2019-02-28T05:29:20.074Z,72.50
2019-02-28T05:30:20.067Z,68.10
2019-02-28T05:31:20.061Z,69.70
2019-02-28T05:32:20.058Z,63.20
2019-02-28T05:33:20.054Z,66.10
2019-02-28T05:34:20.045Z,65.40
2019-02-28T05:35:25.580Z,69.80
2019-02-28T05:36:20.031Z,65.10
2019-02-28T05:37:20.024Z,70.20
2019-02-28T05:38:21.117Z,64.20
2019-02-28T05:39:20.016Z,70.10
2019-02-28T05:40:20.010Z,71.60
2019-02-28T05:41:20.005Z,64.60
2019-02-28T05:42:20.261Z,65.00
2019-02-28T05:43:19.985Z,68.70
2019-02-28T05:44:21.378Z,72.20
2019-02-28T05:45:19.974Z,74.90
2019-02-28T05:46:20.354Z,74.00
2019-02-28T05:47:19.960Z,72.60
2019-02-28T05:48:19.954Z,72.90
2019-02-28T05:49:19.947Z,63.60
2019-02-28T05:50:19.941Z,72.90
2019-02-28T05:51:19.934Z,71.20
2019-02-28T05:52:19.931Z,78.00
2019-02-28T05:53:19.926Z,68.80
2019-02-28T05:54:19.916Z,75.10
2019-02-28T05:55:24.247Z,78.30
2019-02-28T05:56:19.902Z,70.50
2019-02-28T05:57:20.146Z,77.90
2019-02-28T07:13:20.677Z,87.00
2019-02-28T07:14:20.672Z,77.80
2019-02-28T07:15:24.090Z,87.10
2019-02-28T07:16:20.658Z,77.80
2019-02-28T07:17:20.652Z,79.90
2019-02-28T07:18:20.646Z,80.00
2019-02-28T07:19:20.648Z,80.10
2019-02-28T07:20:20.634Z,83.10
2019-02-28T07:21:20.630Z,77.80
2019-02-28T07:22:20.730Z,71.40
2019-02-28T07:23:22.197Z,75.00
2019-02-28T07:24:20.608Z,75.60
2019-02-28T07:25:20.600Z,79.10
2019-02-28T07:26:20.598Z,76.70
2019-02-28T07:27:23.358Z,81.40
2019-02-28T07:28:20.582Z,67.30
2019-02-28T07:29:20.576Z,81.70
2019-02-28T07:30:20.569Z,85.60
2019-02-28T07:31:21.626Z,78.00
2019-02-28T07:32:20.556Z,78.30
2019-02-28T07:33:20.550Z,82.50
2019-02-28T07:34:23.784Z,78.60
2019-02-28T07:35:20.538Z,82.90
2019-02-28T07:36:20.532Z,83.60
2019-02-28T07:37:20.525Z,85.10
2019-02-28T07:38:20.521Z,81.20
2019-02-28T07:39:20.514Z,75.60
2019-02-28T07:40:20.507Z,81.70
2019-02-28T07:41:26.124Z,68.80
2019-02-28T07:42:20.497Z,73.60
2019-02-28T07:43:20.491Z,76.90
2019-02-28T07:44:22.237Z,82.50
2019-02-28T07:45:20.475Z,81.20
2019-02-28T07:46:20.472Z,69.50
2019-02-28T07:47:20.464Z,75.50
2019-02-28T07:48:20.460Z,73.10
2019-02-28T07:49:20.450Z,71.40
2019-02-28T07:50:20.444Z,81.10
2019-02-28T07:51:22.324Z,65.70
2019-02-28T07:52:20.511Z,77.00
2019-02-28T07:53:20.426Z,79.60
2019-02-28T07:54:20.594Z,65.20
2019-02-28T07:55:20.415Z,70.60
2019-02-28T07:56:20.408Z,70.70
2019-02-28T07:57:22.360Z,72.10
2019-02-28T07:58:20.398Z,66.00
2019-02-28T07:59:20.403Z,69.20
2019-02-28T08:00:20.390Z,70.90
2019-02-28T08:01:20.378Z,66.60
2019-02-28T08:02:20.373Z,66.70
2019-02-28T08:03:20.369Z,65.80
2019-02-28T08:04:20.360Z,70.20
2019-02-28T08:05:20.359Z,75.60
2019-02-28T08:06:20.349Z,62.40
2019-02-28T08:07:20.351Z,72.90
2019-02-28T08:08:23.495Z,70.80
2019-02-28T08:09:20.332Z,69.80
2019-02-28T08:10:20.326Z,66.80
2019-02-28T08:11:20.823Z,73.80
2019-02-28T08:12:20.318Z,78.20
2019-02-28T08:13:20.309Z,63.60
2019-02-28T08:14:20.304Z,73.90
2019-02-28T08:15:22.237Z,73.60
2019-02-28T08:16:20.294Z,64.80
2019-02-28T08:17:20.286Z,69.00
2019-02-28T08:18:20.284Z,71.90
2019-02-28T08:19:20.285Z,65.00
2019-02-28T08:20:20.269Z,68.00
2019-02-28T08:21:20.265Z,68.70
2019-02-28T08:22:24.357Z,71.00
2019-02-28T08:23:20.254Z,62.70
2019-02-28T08:24:20.249Z,65.10
2019-02-28T08:25:20.251Z,64.40
2019-02-28T08:26:20.239Z,68.30
2019-02-28T08:27:20.232Z,64.30
2019-02-28T08:28:20.225Z,72.80
2019-02-28T08:29:20.230Z,63.40
2019-02-28T08:30:20.656Z,60.50
2019-02-28T08:31:20.209Z,68.30
2019-02-28T08:32:20.203Z,68.60
2019-02-28T08:33:20.198Z,70.80
2019-02-28T08:34:20.715Z,63.00
2019-02-28T08:35:20.188Z,71.80
2019-02-28T08:36:20.182Z,68.10
2019-02-28T08:37:21.881Z,68.80
2019-02-28T08:38:20.172Z,70.40
2019-02-28T08:39:20.167Z,64.90
2019-02-28T08:40:20.163Z,70.10
2019-02-28T08:41:22.590Z,68.10
2019-02-28T08:42:20.152Z,73.10
2019-02-28T08:43:26.815Z,71.50
2019-02-28T08:44:23.806Z,68.90
2019-02-28T08:45:20.138Z,70.40
2019-02-28T08:46:20.133Z,60.70
2019-02-28T08:47:21.151Z,67.20
2019-02-28T08:48:20.124Z,65.10
2019-02-28T08:49:20.119Z,71.10
2019-02-28T08:50:22.670Z,69.20
2019-02-28T08:51:20.114Z,61.50
2019-02-28T08:52:20.103Z,64.00
2019-02-28T08:53:20.099Z,59.80
2019-02-28T08:54:26.121Z,68.00
2019-02-28T08:55:28.262Z,57.90
2019-02-28T08:56:20.085Z,65.30
2019-02-28T08:57:22.044Z,78.90
2019-02-28T08:58:20.074Z,63.40
2019-02-28T08:59:22.516Z,62.50
2019-02-28T09:00:20.067Z,62.50
2019-02-28T09:01:20.061Z,63.90
2019-02-28T09:02:20.058Z,65.40
2019-02-28T09:03:20.053Z,63.30
2019-02-28T09:04:20.047Z,65.10
2019-02-28T09:05:25.675Z,61.70
2019-02-28T09:06:20.039Z,64.10
2019-02-28T09:07:20.035Z,69.60
2019-02-28T09:08:22.410Z,59.70
2019-02-28T09:09:20.025Z,69.40
2019-02-28T09:10:20.022Z,60.90
2019-02-28T09:11:21.117Z,60.70
2019-02-28T09:12:20.013Z,60.70
2019-02-28T09:13:20.010Z,62.50
2019-02-28T09:14:20.005Z,71.60
2019-02-28T09:15:20.000Z,65.60
2019-02-28T09:16:19.996Z,65.40
2019-02-28T09:17:19.993Z,66.60
2019-02-28T09:18:19.988Z,68.20
2019-02-28T09:19:19.986Z,69.70
2019-02-28T09:20:19.980Z,70.40
2019-02-28T09:21:19.978Z,59.70
2019-02-28T09:22:19.973Z,66.20
2019-02-28T09:23:19.968Z,65.00
2019-02-28T09:24:19.963Z,61.20
2019-02-28T09:25:22.100Z,71.20
2019-02-28T09:26:19.956Z,70.00
2019-02-28T09:27:19.953Z,59.30
2019-02-28T09:28:20.900Z,63.60
2019-02-28T09:29:21.294Z,66.90
2019-02-28T09:30:19.960Z,59.60
2019-02-28T09:31:19.937Z,66.30
2019-02-28T09:32:19.932Z,67.60
2019-02-28T09:33:23.228Z,62.40
2019-02-28T09:34:19.931Z,61.10
2019-02-28T09:35:19.926Z,67.60
2019-02-28T09:36:20.832Z,61.50
2019-02-28T09:37:19.915Z,60.40
2019-02-28T09:38:19.912Z,62.40
2019-02-28T09:39:20.298Z,67.70
2019-02-28T09:40:19.905Z,64.50
2019-02-28T09:41:19.902Z,64.80
2019-02-28T09:42:19.898Z,70.50
2019-02-28T09:43:19.896Z,67.10
2019-02-28T09:44:19.893Z,66.80
2019-02-28T09:45:19.888Z,70.40
2019-02-28T09:46:19.886Z,68.30
2019-02-28T09:47:19.885Z,70.20
2019-02-28T09:48:19.880Z,66.50
2019-02-28T09:49:19.878Z,58.90
2019-02-28T09:50:22.458Z,63.40
2019-02-28T09:51:19.874Z,64.90
2019-02-28T09:52:19.871Z,65.00
2019-02-28T09:53:19.870Z,64.10
2019-02-28T09:54:21.356Z,72.70
2019-02-28T09:55:19.866Z,65.60
2019-02-28T09:56:19.865Z,72.00
2019-02-28T09:57:19.905Z,65.50
2019-02-28T09:58:19.862Z,65.90
2019-02-28T09:59:19.866Z,68.80
2019-02-28T10:00:19.862Z,56.90
2019-02-28T10:01:21.263Z,57.60
2019-02-28T10:02:19.861Z,54.60
2019-02-28T10:03:19.872Z,71.80
2019-02-28T10:04:19.858Z,72.60
2019-02-28T10:05:19.860Z,61.30
2019-02-28T10:06:19.860Z,62.70
2019-02-28T10:07:19.860Z,60.60
2019-02-28T10:08:21.663Z,65.00
2019-02-28T10:09:19.860Z,58.00
2019-02-28T10:10:21.022Z,71.70
2019-02-28T10:11:21.719Z,57.90
2019-02-28T10:12:19.864Z,61.70
2019-02-28T10:13:19.861Z,63.20
2019-02-28T10:14:19.865Z,60.20
2019-02-28T10:15:19.877Z,61.50
2019-02-28T10:16:19.867Z,58.60
2019-02-28T10:17:19.868Z,60.70
2019-02-28T10:18:19.868Z,64.90
2019-02-28T10:19:19.871Z,65.00
2019-02-28T10:20:19.871Z,60.60
2019-02-28T10:21:19.873Z,69.10
2019-02-28T10:22:19.875Z,67.20
2019-02-28T10:23:21.465Z,70.40
2019-02-28T10:24:19.879Z,55.90
2019-02-28T10:25:19.882Z,53.70
2019-02-28T10:26:19.884Z,69.60
2019-02-28T10:27:19.891Z,69.10
2019-02-28T10:28:19.888Z,67.60
2019-02-28T10:29:19.892Z,64.20
2019-02-28T10:30:30.708Z,57.50
2019-02-28T10:31:22.878Z,57.70
2019-02-28T10:32:19.899Z,59.20
2019-02-28T10:33:19.904Z,56.70
2019-02-28T10:34:19.907Z,66.10
2019-02-28T10:35:19.910Z,67.10
2019-02-28T10:36:19.910Z,62.50
2019-02-28T10:37:22.846Z,74.20
2019-02-28T10:38:19.917Z,65.00
2019-02-28T10:39:19.918Z,62.00
2019-02-28T10:40:19.921Z,57.20
2019-02-28T10:41:19.924Z,62.20
2019-02-28T10:42:19.927Z,57.50
2019-02-28T10:43:19.934Z,57.90
2019-02-28T10:44:19.932Z,58.20
2019-02-28T10:45:19.935Z,64.30
2019-02-28T10:46:20.285Z,60.00
2019-02-28T10:47:19.940Z,65.60
2019-02-28T10:48:19.940Z,62.10
2019-02-28T10:49:21.080Z,61.30
2019-02-28T10:50:19.946Z,61.50
2019-02-28T10:51:19.948Z,57.70
2019-02-28T10:52:19.952Z,64.90
2019-02-28T10:53:19.951Z,67.10
2019-02-28T10:54:19.954Z,65.20
2019-02-28T10:55:22.566Z,60.30
2019-02-28T10:56:19.956Z,56.90
2019-02-28T10:57:19.958Z,70.10
2019-02-28T10:58:19.960Z,60.60
2019-02-28T10:59:21.354Z,70.80
2019-02-28T11:00:20.181Z,68.60
2019-02-28T11:01:19.967Z,66.10
2019-02-28T11:02:20.031Z,60.00
2019-02-28T11:03:19.966Z,68.10
2019-02-28T11:04:19.967Z,74.00
2019-02-28T11:05:19.968Z,70.80
2019-02-28T11:06:19.973Z,71.70
2019-02-28T11:07:19.971Z,65.10
2019-02-28T11:08:19.972Z,67.20
2019-02-28T11:09:21.412Z,71.80
2019-02-28T11:10:19.973Z,73.00
2019-02-28T11:11:19.975Z,73.10
2019-02-28T11:12:21.739Z,67.30
2019-02-28T11:13:19.979Z,59.10
2019-02-28T11:14:19.977Z,65.00
2019-02-28T11:15:19.977Z,71.00
2019-02-28T11:16:20.438Z,74.40
2019-02-28T11:17:19.979Z,62.00
2019-02-28T11:18:19.982Z,70.20
2019-02-28T11:19:19.980Z,64.90
2019-02-28T11:20:22.288Z,70.20
2019-02-28T11:21:19.981Z,69.70
2019-02-28T11:22:19.981Z,82.10
2019-02-28T11:23:19.984Z,81.40
2019-02-28T11:24:20.613Z,73.70
2019-02-28T11:25:19.983Z,75.60
2019-02-28T11:26:19.984Z,71.00
2019-02-28T11:27:22.840Z,66.70
2019-02-28T11:28:19.983Z,69.70
2019-02-28T11:29:19.989Z,74.00
2019-02-28T11:30:19.987Z,66.90
2019-02-28T11:31:20.082Z,69.40
2019-02-28T11:32:19.986Z,66.60
2019-02-28T11:33:19.987Z,71.80
2019-02-28T11:34:19.987Z,65.70
2019-02-28T11:35:20.090Z,65.10
2019-02-28T11:36:19.987Z,74.60
2019-02-28T11:37:19.988Z,78.40
2019-02-28T11:38:21.551Z,65.60
2019-02-28T11:39:19.988Z,65.70
2019-02-28T11:40:19.986Z,65.90
2019-02-28T11:41:19.986Z,70.90
2019-02-28T11:42:19.988Z,63.70
2019-02-28T11:43:19.988Z,70.10
2019-02-28T11:44:19.985Z,75.40
2019-02-28T11:45:22.021Z,66.00
2019-02-28T11:46:19.985Z,67.70
2019-02-28T11:47:19.984Z,75.00
2019-02-28T11:48:20.500Z,68.10
2019-02-28T11:49:19.983Z,77.30
2019-02-28T11:50:19.982Z,81.00
2019-02-28T11:51:19.983Z,73.90
2019-02-28T11:52:19.980Z,66.00
2019-02-28T11:53:19.980Z,73.10
2019-02-28T11:54:19.980Z,69.00
2019-02-28T11:55:20.402Z,68.40
2019-02-28T11:56:20.011Z,71.30
2019-02-28T11:57:20.625Z,75.60
2019-02-28T11:58:19.976Z,81.00
2019-02-28T11:59:19.986Z,81.80
2019-02-28T12:00:19.974Z,68.10
2019-02-28T12:01:19.972Z,71.70
2019-02-28T12:02:20.582Z,76.20
2019-02-28T12:03:19.979Z,65.20
2019-02-28T12:04:19.967Z,81.50
2019-02-28T12:05:19.968Z,77.50
2019-02-28T12:06:22.366Z,77.00
2019-02-28T12:07:19.965Z,73.20
2019-02-28T12:08:19.965Z,70.20
2019-02-28T12:09:20.090Z,86.10
2019-02-28T12:10:19.961Z,74.30
2019-02-28T12:11:19.960Z,77.10
2019-02-28T12:12:19.958Z,79.40
2019-02-28T12:13:20.574Z,71.00
2019-02-28T12:14:19.955Z,85.70
2019-02-28T12:15:19.954Z,75.10
2019-02-28T12:16:20.266Z,80.60
2019-02-28T12:17:19.952Z,77.10
2019-02-28T12:18:19.953Z,77.30
2019-02-28T12:19:19.948Z,81.00
2019-02-28T12:20:25.925Z,75.40
2019-02-28T12:21:19.946Z,75.30
2019-02-28T12:22:19.945Z,75.50
2019-02-28T12:23:22.916Z,73.00
2019-02-28T12:24:19.940Z,68.20
2019-02-28T12:25:19.941Z,64.40
2019-02-28T12:26:21.078Z,80.00
2019-02-28T12:27:19.936Z,69.20
2019-02-28T12:28:19.935Z,69.00
2019-02-28T12:29:19.934Z,72.60
2019-02-28T12:30:21.950Z,75.30
2019-02-28T12:31:19.932Z,79.90
2019-02-28T12:32:19.933Z,69.90
2019-02-28T12:33:23.140Z,80.40
2019-02-28T12:34:19.927Z,82.70
2019-02-28T12:35:19.926Z,75.10
2019-02-28T12:36:19.924Z,78.50
2019-02-28T12:37:22.093Z,79.50
2019-02-28T12:38:19.921Z,64.60
2019-02-28T12:39:19.920Z,84.50
2019-02-28T12:40:19.916Z,72.20
2019-02-28T12:41:21.731Z,75.80
2019-02-28T12:42:19.914Z,74.60
2019-02-28T12:43:19.914Z,72.50
2019-02-28T12:44:19.911Z,70.00
2019-02-28T12:45:21.263Z,72.40
2019-02-28T12:46:19.910Z,66.40
2019-02-28T12:47:19.909Z,70.50
2019-02-28T12:48:19.905Z,72.10
2019-02-28T12:49:22.398Z,73.30
2019-02-28T12:50:19.904Z,79.10
2019-02-28T12:51:19.902Z,78.60
2019-02-28T12:52:19.900Z,66.60
2019-02-28T12:53:24.118Z,68.80
2019-02-28T12:54:19.901Z,79.90
2019-02-28T12:55:19.898Z,67.30
2019-02-28T12:56:19.896Z,70.50
2019-02-28T12:57:22.329Z,69.20
2019-02-28T12:58:19.893Z,63.70
2019-02-28T12:59:19.891Z,64.40
2019-02-28T13:00:23.118Z,65.50
2019-02-28T13:01:19.889Z,70.40
2019-02-28T13:02:19.888Z,77.70
2019-02-28T13:03:21.095Z,77.20
2019-02-28T13:04:19.884Z,75.60
2019-02-28T13:05:19.883Z,73.50
2019-02-28T13:06:23.442Z,74.90
2019-02-28T13:07:19.880Z,73.70
2019-02-28T13:08:19.878Z,70.80
2019-02-28T13:09:19.877Z,70.40
2019-02-28T13:10:19.875Z,85.20
2019-02-28T13:11:19.878Z,82.70
2019-02-28T13:12:19.874Z,71.90
2019-02-28T13:13:21.584Z,65.10
2019-02-28T13:14:19.874Z,83.70
2019-02-28T13:15:19.871Z,66.80
2019-02-28T13:16:20.769Z,83.20
2019-02-28T13:17:19.867Z,69.20
2019-02-28T13:18:19.864Z,70.80
2019-02-28T13:19:20.134Z,68.40
2019-02-28T13:20:19.862Z,66.70
2019-02-28T13:21:19.860Z,79.80
2019-02-28T13:22:23.323Z,67.10
2019-02-28T13:23:19.857Z,70.10
2019-02-28T13:24:19.862Z,75.50
2019-02-28T13:25:23.599Z,73.50
2019-02-28T13:26:19.855Z,69.70
2019-02-28T13:27:19.852Z,68.10
2019-02-28T13:28:22.100Z,71.60
2019-02-28T13:29:22.029Z,72.10
2019-02-28T13:30:19.846Z,71.30
2019-02-28T13:31:19.847Z,71.60
2019-02-28T13:32:19.843Z,77.70
2019-02-28T13:33:19.850Z,71.80
2019-02-28T13:34:19.847Z,76.00
2019-02-28T13:35:19.919Z,69.00
2019-02-28T13:36:21.631Z,71.60
2019-02-28T13:37:19.835Z,65.10
2019-02-28T13:38:20.023Z,63.30
2019-02-28T13:39:19.833Z,67.50
2019-02-28T13:40:21.977Z,65.70
2019-02-28T13:41:22.106Z,65.40
2019-02-28T13:42:19.830Z,66.40
2019-02-28T13:43:22.408Z,73.40
2019-02-28T13:44:19.824Z,68.00
2019-02-28T13:45:23.126Z,69.60
2019-02-28T13:46:19.824Z,66.60
2019-02-28T13:47:19.822Z,80.40
2019-02-28T13:48:25.957Z,74.70
2019-02-28T13:49:19.817Z,69.20
2019-02-28T13:50:22.029Z,68.30
2019-02-28T13:51:19.816Z,64.80
2019-02-28T13:52:20.847Z,64.00
2019-02-28T13:53:19.810Z,66.00
2019-02-28T13:54:19.810Z,61.40
2019-02-28T13:55:20.167Z,74.00
2019-02-28T13:56:19.808Z,73.40
2019-02-28T13:57:19.806Z,63.00
2019-02-28T13:58:21.611Z,70.00
2019-02-28T13:59:19.805Z,71.30
2019-02-28T14:00:19.801Z,70.50
2019-02-28T14:01:20.355Z,65.60
2019-02-28T14:02:19.800Z,66.90
2019-02-28T14:03:19.798Z,65.30
2019-02-28T14:04:25.991Z,66.60
2019-02-28T14:05:19.793Z,65.40
2019-02-28T14:06:20.014Z,58.80
2019-02-28T14:07:19.798Z,66.80